Time;durP1;ratioP1;P1;durP2;ratioP2;P2;SDS_P1;SDS_P2;PMS_P1;PMS_P2;Temp;Humidity;BMP_temperature;BMP_pressure;BME280_temperature;BME280_humidity;BME280_pressure;Samples;Min_cycle;Max_cycle;Signal;HPM_P1;HPM_P2
2022/12/30 00:02:22;;;;;;;10.07;2.58;;;;;;;;;;5012507;28;20025;-37
2022/12/30 00:04:49;;;;;;;6.68;2.20;;;;;;;;;;5012580;28;20087;-36
2022/12/30 00:07:16;;;;;;;14.57;3.05;;;;;;;;;;5012535;28;20488;-36
2022/12/30 00:09:43;;;;;;;14.23;3.47;;;;;;;;;;5012469;28;20030;-36
2022/12/30 00:34:19;;;;;;;17.30;3.60;;;;;;;;;;5012503;28;20408;-36
2022/12/30 00:36:48;;;;;;;17.30;3.58;;;;;;;;;;5012183;28;20033;-37
2022/12/30 00:39:14;;;;;;;19.75;3.92;;;;;;;;;;5012080;28;20105;-36
2022/12/30 00:44:26;;;;;;;20.25;4.40;;;;;;;;;;5012370;28;20041;-37
2022/12/30 00:46:54;;;;;;;16.02;3.88;;;;;;;;;;5012082;28;20022;-37
2022/12/30 00:57:37;;;;;;;24.65;5.00;;;;;;;;;;5012020;28;20041;-37
2022/12/30 01:00:06;;;;;;;15.13;4.57;;;;;;;;;;4994259;28;20044;-37
2022/12/30 01:02:33;;;;;;;25.25;5.93;;;;;;;;;;5011814;28;20022;-37
2022/12/30 01:05:00;;;;;;;19.77;4.30;;;;;;;;;;5011969;28;20026;-36
2022/12/30 01:07:30;;;;;;;26.73;5.10;;;;;;;;;;5011917;28;20079;-36
2022/12/30 01:09:57;;;;;;;18.15;4.57;;;;;;;;;;5011823;28;20109;-36
2022/12/30 01:12:24;;;;;;;30.67;5.47;;;;;;;;;;5014420;28;20069;-37
2022/12/30 01:14:52;;;;;;;29.08;5.50;;;;;;;;;;5015614;28;20038;-36
2022/12/30 01:17:21;;;;;;;32.75;5.65;;;;;;;;;;5014998;28;20065;-36
2022/12/30 01:19:48;;;;;;;26.13;5.63;;;;;;;;;;5015533;28;20030;-36
2022/12/30 01:22:15;;;;;;;28.83;5.72;;;;;;;;;;5015398;28;20069;-36
2022/12/30 01:24:42;;;;;;;25.10;5.28;;;;;;;;;;5015383;28;20026;-37
2022/12/30 01:27:09;;;;;;;26.45;6.05;;;;;;;;;;5015511;28;20160;-37
2022/12/30 01:29:41;;;;;;;28.75;5.63;;;;;;;;;;5015290;28;20533;-37
2022/12/30 01:32:09;;;;;;;27.85;6.13;;;;;;;;;;5015166;28;20033;-36
2022/12/30 01:34:36;;;;;;;25.73;6.40;;;;;;;;;;5015314;28;20030;-37
2022/12/30 01:37:03;;;;;;;35.30;6.18;;;;;;;;;;5015246;28;20029;-37
2022/12/30 01:39:31;;;;;;;27.98;6.53;;;;;;;;;;5014980;28;20426;-37
2022/12/30 01:41:58;;;;;;;21.77;5.95;;;;;;;;;;5015094;28;20029;-37
2022/12/30 01:44:43;;;;;;;30.52;6.30;;;;;;;;;;5015099;28;20030;-36
2022/12/30 01:47:11;;;;;;;31.63;6.38;;;;;;;;;;5015015;28;20376;-36
2022/12/30 01:49:40;;;;;;;41.03;6.68;;;;;;;;;;5014977;28;20041;-36
2022/12/30 01:52:07;;;;;;;28.35;6.28;;;;;;;;;;5014939;28;20030;-38
2022/12/30 01:54:36;;;;;;;30.83;6.78;;;;;;;;;;5014924;28;20049;-37
2022/12/30 01:57:04;;;;;;;34.15;6.65;;;;;;;;;;5014896;28;20492;-37
2022/12/30 01:59:32;;;;;;;31.38;6.45;;;;;;;;;;5014809;28;20492;-36
2022/12/30 02:01:59;;;;;;;30.65;5.90;;;;;;;;;;5014695;28;20058;-37
2022/12/30 02:04:28;;;;;;;35.53;6.68;;;;;;;;;;5014751;28;20036;-38
2022/12/30 02:07:11;;;;;;;28.17;6.15;;;;;;;;;;5014749;28;20583;-36
2022/12/30 02:09:38;;;;;;;33.10;6.65;;;;;;;;;;5014513;28;20034;-36
2022/12/30 02:12:06;;;;;;;26.23;6.13;;;;;;;;;;5014022;28;20112;-41
2022/12/30 02:14:35;;;;;;;42.33;5.13;;;;;;;;;;5012841;28;20480;-41
2022/12/30 02:17:20;;;;;;;32.65;4.30;;;;;;;;;;5029728;28;20447;-40
2022/12/30 02:19:49;;;;;;;32.50;3.63;;;;;;;;;;5016981;28;20033;-40
2022/12/30 02:22:41;;;;;;;35.05;4.10;;;;;;;;;;5012519;28;20026;-41
2022/12/30 02:25:26;;;;;;;61.80;6.07;;;;;;;;;;5012950;28;20432;-41
2022/12/30 02:28:06;;;;;;;45.83;5.70;;;;;;;;;;5012830;28;20032;-41
2022/12/30 02:30:51;;;;;;;53.67;7.65;;;;;;;;;;5014713;28;20042;-40
2022/12/30 02:33:30;;;;;;;44.55;8.25;;;;;;;;;;5012732;28;20030;-40
2022/12/30 02:36:03;;;;;;;52.20;7.30;;;;;;;;;;5012626;28;20030;-39
2022/12/30 02:38:43;;;;;;;39.03;5.20;;;;;;;;;;5012419;28;20100;-39
2022/12/30 02:47:10;;;;;;;41.83;3.92;;;;;;;;;;5013262;28;20045;-39
2022/12/30 02:49:38;;;;;;;30.63;3.45;;;;;;;;;;5012063;28;20037;-39
2022/12/30 02:52:14;;;;;;;44.40;4.75;;;;;;;;;;5012008;28;20034;-40
2022/12/30 02:54:43;;;;;;;35.25;3.75;;;;;;;;;;5012185;28;20030;-39
2022/12/30 02:57:33;;;;;;;41.20;4.25;;;;;;;;;;5012214;28;20164;-40
2022/12/30 03:04:00;;;;;;;33.92;3.78;;;;;;;;;;5011896;28;20037;-40
2022/12/30 03:05:56;;;;;;;36.22;4.05;;;;;;;;;;5000330;28;20044;-39
2022/12/30 03:08:31;;;;;;;48.22;4.93;;;;;;;;;;5011840;28;20111;-40
2022/12/30 03:11:19;;;;;;;36.85;3.88;;;;;;;;;;5011857;28;20424;-40
2022/12/30 03:13:45;;;;;;;51.47;4.50;;;;;;;;;;5011589;28;20113;-40
2022/12/30 03:16:18;;;;;;;42.13;4.13;;;;;;;;;;4995571;28;20061;-39
2022/12/30 03:18:46;;;;;;;29.17;2.97;;;;;;;;;;5031241;28;20121;-39
2022/12/30 03:21:13;;;;;;;35.65;4.18;;;;;;;;;;5027976;28;20423;-41
2022/12/30 03:29:18;;;;;;;25.95;3.15;;;;;;;;;;5032691;28;20048;-41
2022/12/30 03:31:46;;;;;;;54.47;7.18;;;;;;;;;;5032487;28;20125;-41
2022/12/30 03:34:12;;;;;;;41.65;4.90;;;;;;;;;;5030864;28;20060;-41
2022/12/30 03:36:42;;;;;;;34.47;3.78;;;;;;;;;;5031390;28;20018;-40
2022/12/30 03:39:15;;;;;;;36.30;3.58;;;;;;;;;;5030919;28;20032;-41
2022/12/30 03:41:44;;;;;;;37.05;4.55;;;;;;;;;;5028514;28;20033;-40
2022/12/30 03:44:11;;;;;;;29.48;4.53;;;;;;;;;;5030409;28;20037;-43
2022/12/30 03:46:40;;;;;;;48.78;5.18;;;;;;;;;;5012522;28;20025;-40
2022/12/30 03:49:07;;;;;;;48.13;5.30;;;;;;;;;;5030990;28;20483;-41
2022/12/30 03:51:34;;;;;;;25.90;3.50;;;;;;;;;;5030837;28;20026;-41
2022/12/30 03:54:01;;;;;;;27.60;3.92;;;;;;;;;;5030775;28;20056;-41
2022/12/30 03:56:28;;;;;;;24.13;4.20;;;;;;;;;;5030925;28;20025;-41
2022/12/30 03:58:55;;;;;;;34.65;3.97;;;;;;;;;;5031318;28;20455;-41
2022/12/30 04:01:22;;;;;;;36.65;4.15;;;;;;;;;;5030938;28;20471;-41
2022/12/30 04:03:49;;;;;;;35.30;5.13;;;;;;;;;;5030884;28;20033;-40
2022/12/30 04:06:16;;;;;;;36.33;4.95;;;;;;;;;;5026554;28;20033;-42
2022/12/30 04:08:43;;;;;;;36.92;4.30;;;;;;;;;;5030391;28;20052;-41
2022/12/30 04:11:10;;;;;;;28.10;4.65;;;;;;;;;;5030174;28;20120;-41
2022/12/30 04:13:37;;;;;;;31.27;4.25;;;;;;;;;;5031316;28;20029;-42
2022/12/30 04:16:04;;;;;;;34.45;4.57;;;;;;;;;;5025847;28;20446;-42
2022/12/30 04:18:31;;;;;;;30.77;4.03;;;;;;;;;;5027321;28;20033;-41
2022/12/30 04:20:58;;;;;;;15.88;3.53;;;;;;;;;;5031647;28;20028;-43
2022/12/30 04:23:25;;;;;;;44.80;5.28;;;;;;;;;;5022851;28;20064;-41
2022/12/30 04:25:52;;;;;;;32.70;4.80;;;;;;;;;;5031927;28;20029;-41
2022/12/30 04:28:19;;;;;;;28.27;3.40;;;;;;;;;;5018460;28;20096;-42
2022/12/30 04:30:49;;;;;;;25.95;3.60;;;;;;;;;;5012321;28;20093;-44
2022/12/30 04:33:16;;;;;;;30.15;3.55;;;;;;;;;;5023272;28;20056;-41
2022/12/30 04:35:43;;;;;;;25.23;3.20;;;;;;;;;;5012189;28;20018;-41
2022/12/30 04:38:10;;;;;;;24.90;2.75;;;;;;;;;;5012137;28;20033;-44
2022/12/30 04:40:37;;;;;;;29.10;2.90;;;;;;;;;;5011978;28;20489;-41
2022/12/30 04:43:04;;;;;;;24.35;2.72;;;;;;;;;;5020274;28;20028;-44
2022/12/30 04:45:31;;;;;;;42.08;3.20;;;;;;;;;;5031781;28;20030;-43
2022/12/30 04:47:58;;;;;;;34.38;3.05;;;;;;;;;;5035472;28;20072;-43
2022/12/30 04:50:25;;;;;;;14.02;2.53;;;;;;;;;;5035779;28;20029;-43
2022/12/30 04:52:52;;;;;;;23.23;2.88;;;;;;;;;;5035338;28;20079;-43
2022/12/30 04:55:19;;;;;;;17.67;2.80;;;;;;;;;;5035773;28;20476;-40
2022/12/30 04:57:46;;;;;;;29.40;2.58;;;;;;;;;;5035435;28;20025;-40
2022/12/30 05:00:13;;;;;;;23.75;3.33;;;;;;;;;;5035221;28;20029;-41
2022/12/30 05:02:40;;;;;;;27.45;3.17;;;;;;;;;;5034227;28;20453;-43
2022/12/30 05:05:07;;;;;;;31.75;3.60;;;;;;;;;;5017153;28;20427;-40
2022/12/30 05:07:34;;;;;;;24.80;3.00;;;;;;;;;;5035166;28;20112;-44
2022/12/30 05:10:01;;;;;;;27.73;2.60;;;;;;;;;;5035195;28;20034;-40
2022/12/30 05:12:28;;;;;;;20.45;2.97;;;;;;;;;;5028975;28;20124;-44
2022/12/30 05:14:55;;;;;;;29.77;3.08;;;;;;;;;;5034696;28;20029;-40
2022/12/30 05:17:22;;;;;;;26.20;2.85;;;;;;;;;;5034748;28;20476;-41
2022/12/30 05:19:49;;;;;;;30.17;3.60;;;;;;;;;;5035068;28;20503;-40
2022/12/30 05:22:16;;;;;;;16.50;2.30;;;;;;;;;;5034787;28;20029;-41
2022/12/30 05:27:28;;;;;;;21.38;2.92;;;;;;;;;;5022295;28;20107;-40
2022/12/30 05:29:55;;;;;;;17.85;2.53;;;;;;;;;;5034544;28;20080;-43
2022/12/30 05:32:22;;;;;;;27.30;2.80;;;;;;;;;;5034319;28;20088;-43
2022/12/30 05:34:49;;;;;;;21.13;3.00;;;;;;;;;;5034326;28;20033;-45
2022/12/30 05:37:16;;;;;;;16.25;2.72;;;;;;;;;;5034806;28;20030;-43
2022/12/30 05:39:43;;;;;;;20.95;2.63;;;;;;;;;;5034550;28;20041;-42
2022/12/30 05:42:10;;;;;;;24.75;2.90;;;;;;;;;;5034366;28;20029;-40
2022/12/30 05:44:37;;;;;;;15.25;2.30;;;;;;;;;;5034097;28;20074;-40
2022/12/30 05:47:04;;;;;;;28.05;2.63;;;;;;;;;;5034009;28;20032;-43
2022/12/30 05:49:31;;;;;;;17.63;2.28;;;;;;;;;;5034588;28;20037;-41
2022/12/30 05:51:58;;;;;;;17.15;2.10;;;;;;;;;;5034301;28;20091;-43
2022/12/30 05:54:25;;;;;;;24.88;2.53;;;;;;;;;;5033607;28;20120;-44
2022/12/30 05:56:51;;;;;;;14.40;1.77;;;;;;;;;;5033791;28;20052;-41
2022/12/30 05:59:18;;;;;;;12.02;1.92;;;;;;;;;;5033851;28;20029;-43
2022/12/30 06:01:45;;;;;;;14.85;2.30;;;;;;;;;;5031808;28;20021;-43
2022/12/30 06:04:12;;;;;;;18.00;2.28;;;;;;;;;;5033508;28;20036;-43
2022/12/30 06:06:39;;;;;;;19.05;2.42;;;;;;;;;;5034165;28;20107;-43
2022/12/30 06:09:08;;;;;;;15.40;2.42;;;;;;;;;;5033952;28;20040;-44
2022/12/30 06:11:35;;;;;;;19.50;2.88;;;;;;;;;;5033433;28;20041;-40
2022/12/30 06:14:02;;;;;;;28.83;3.72;;;;;;;;;;5029221;28;20037;-43
2022/12/30 06:16:29;;;;;;;24.27;2.60;;;;;;;;;;5033529;28;20083;-43
2022/12/30 06:18:56;;;;;;;31.88;3.00;;;;;;;;;;5033755;28;20104;-41
2022/12/30 06:21:23;;;;;;;24.35;3.00;;;;;;;;;;5033284;28;20029;-43
2022/12/30 06:23:49;;;;;;;22.65;2.97;;;;;;;;;;5032932;28;20031;-40
2022/12/30 06:26:16;;;;;;;34.80;4.38;;;;;;;;;;5033645;28;20084;-41
2022/12/30 06:28:43;;;;;;;39.42;4.65;;;;;;;;;;5021580;28;20034;-40
2022/12/30 06:31:10;;;;;;;31.50;4.35;;;;;;;;;;5017107;28;20021;-43
2022/12/30 06:33:37;;;;;;;39.00;4.00;;;;;;;;;;5016764;28;20057;-43
2022/12/30 06:36:04;;;;;;;27.55;3.22;;;;;;;;;;5025094;28;20033;-41
2022/12/30 06:38:31;;;;;;;23.35;3.15;;;;;;;;;;5029056;28;20059;-43
2022/12/30 06:40:58;;;;;;;21.42;2.25;;;;;;;;;;5032799;28;20081;-40
2022/12/30 06:43:25;;;;;;;18.88;2.22;;;;;;;;;;5032971;28;20518;-42
2022/12/30 06:45:53;;;;;;;16.23;2.20;;;;;;;;;;5028473;28;20037;-40
2022/12/30 06:48:20;;;;;;;23.30;2.35;;;;;;;;;;5033312;28;20064;-43
2022/12/30 06:50:47;;;;;;;21.70;2.20;;;;;;;;;;5023417;28;20423;-43
2022/12/30 06:53:14;;;;;;;19.13;2.45;;;;;;;;;;5029014;28;20029;-43
2022/12/30 06:55:41;;;;;;;13.93;1.73;;;;;;;;;;5030092;28;20022;-40
2022/12/30 06:58:08;;;;;;;17.65;1.63;;;;;;;;;;5021713;28;20041;-40
2022/12/30 07:00:35;;;;;;;20.45;2.50;;;;;;;;;;5014690;28;20032;-41
2022/12/30 07:03:02;;;;;;;17.92;2.17;;;;;;;;;;5014504;28;20026;-41
2022/12/30 07:05:29;;;;;;;21.40;3.08;;;;;;;;;;5026247;28;20033;-41
2022/12/30 07:07:56;;;;;;;21.00;2.88;;;;;;;;;;5032845;28;20472;-40
2022/12/30 07:10:23;;;;;;;13.10;1.80;;;;;;;;;;5032050;28;20049;-41
2022/12/30 07:12:50;;;;;;;15.88;2.03;;;;;;;;;;5030697;28;20052;-43
2022/12/30 07:15:17;;;;;;;23.17;2.25;;;;;;;;;;5028397;28;20383;-41
2022/12/30 07:17:44;;;;;;;20.17;2.05;;;;;;;;;;5015629;28;20092;-40
2022/12/30 07:20:12;;;;;;;13.10;1.77;;;;;;;;;;5014278;28;20045;-43
2022/12/30 07:22:39;;;;;;;21.08;2.80;;;;;;;;;;5027241;28;20045;-40
2022/12/30 07:25:06;;;;;;;18.27;2.35;;;;;;;;;;5029798;28;20033;-43
2022/12/30 07:27:33;;;;;;;25.50;3.17;;;;;;;;;;5016307;28;20032;-43
2022/12/30 07:30:00;;;;;;;49.03;5.82;;;;;;;;;;5024877;28;20116;-43
2022/12/30 07:32:28;;;;;;;35.83;4.38;;;;;;;;;;5018386;28;20025;-41
2022/12/30 07:34:54;;;;;;;39.95;5.00;;;;;;;;;;5021703;28;20551;-40
2022/12/30 07:37:21;;;;;;;19.73;3.25;;;;;;;;;;5027633;28;20049;-41
2022/12/30 07:39:48;;;;;;;22.45;2.90;;;;;;;;;;5012580;28;20042;-41
2022/12/30 07:42:15;;;;;;;20.27;2.50;;;;;;;;;;5024208;28;20455;-40
2022/12/30 07:44:42;;;;;;;18.60;2.35;;;;;;;;;;5031260;28;20022;-42
2022/12/30 07:47:09;;;;;;;15.00;2.10;;;;;;;;;;5021828;28;20034;-40
2022/12/30 07:49:36;;;;;;;15.20;2.03;;;;;;;;;;5031999;28;20041;-41
2022/12/30 07:52:05;;;;;;;13.88;1.98;;;;;;;;;;5032464;28;20075;-41
2022/12/30 07:54:32;;;;;;;10.85;2.20;;;;;;;;;;5026145;28;20471;-45
2022/12/30 07:56:59;;;;;;;19.83;2.47;;;;;;;;;;5032228;28;20033;-43
2022/12/30 07:59:26;;;;;;;23.35;2.83;;;;;;;;;;5031964;28;20029;-40
2022/12/30 08:01:53;;;;;;;21.25;2.60;;;;;;;;;;5031892;28;20028;-40
2022/12/30 08:04:20;;;;;;;18.95;2.50;;;;;;;;;;5031066;28;20503;-44
2022/12/30 08:06:47;;;;;;;30.90;3.08;;;;;;;;;;5030670;28;20037;-43
2022/12/30 08:09:14;;;;;;;20.67;2.83;;;;;;;;;;5031803;28;20123;-43
2022/12/30 08:11:41;;;;;;;19.23;3.15;;;;;;;;;;5031619;28;20033;-44
2022/12/30 08:14:08;;;;;;;21.77;2.75;;;;;;;;;;5030726;28;20033;-41
2022/12/30 08:16:34;;;;;;;25.42;3.13;;;;;;;;;;5031684;28;20091;-40
2022/12/30 08:19:01;;;;;;;22.48;2.58;;;;;;;;;;5031562;28;20036;-41
2022/12/30 08:21:28;;;;;;;24.23;2.92;;;;;;;;;;5031004;28;20022;-40
2022/12/30 08:23:55;;;;;;;27.73;2.97;;;;;;;;;;5030037;28;20116;-41
2022/12/30 08:26:23;;;;;;;23.02;2.03;;;;;;;;;;4994779;28;20046;-40
2022/12/30 08:28:51;;;;;;;17.17;2.00;;;;;;;;;;5026486;28;20491;-43
2022/12/30 08:31:20;;;;;;;12.90;1.50;;;;;;;;;;5028694;28;20049;-41
2022/12/30 08:33:47;;;;;;;11.75;1.73;;;;;;;;;;5031647;28;20021;-43
2022/12/30 08:36:15;;;;;;;15.07;2.15;;;;;;;;;;5031789;28;20053;-43
2022/12/30 08:38:46;;;;;;;20.10;1.92;;;;;;;;;;5031717;28;20029;-40
2022/12/30 08:41:18;;;;;;;24.20;2.53;;;;;;;;;;5030233;28;20049;-43
2022/12/30 08:43:45;;;;;;;23.35;2.97;;;;;;;;;;5031183;28;20025;-43
2022/12/30 08:46:12;;;;;;;19.60;2.10;;;;;;;;;;5031237;28;20124;-43
2022/12/30 08:48:39;;;;;;;31.77;2.92;;;;;;;;;;5031419;28;20099;-43
2022/12/30 08:51:07;;;;;;;19.88;2.83;;;;;;;;;;5030206;28;20102;-44
2022/12/30 08:53:34;;;;;;;17.38;2.72;;;;;;;;;;5013360;28;20395;-41
2022/12/30 08:56:05;;;;;;;19.02;3.10;;;;;;;;;;5012216;28;20037;-40
2022/12/30 08:58:33;;;;;;;13.07;2.45;;;;;;;;;;5012002;28;20499;-43
2022/12/30 09:01:00;;;;;;;17.52;2.10;;;;;;;;;;5011982;28;20105;-41
2022/12/30 09:03:27;;;;;;;29.40;4.20;;;;;;;;;;5011959;28;20049;-40
2022/12/30 09:05:55;;;;;;;44.22;4.68;;;;;;;;;;5030666;28;20048;-43
2022/12/30 09:08:22;;;;;;;29.58;4.20;;;;;;;;;;5031628;28;20022;-40
2022/12/30 09:10:59;;;;;;;23.45;3.25;;;;;;;;;;5030010;28;20411;-43
2022/12/30 09:13:26;;;;;;;19.30;2.92;;;;;;;;;;5012374;28;20040;-40
2022/12/30 09:15:53;;;;;;;18.60;2.40;;;;;;;;;;5031044;28;20034;-40
2022/12/30 09:18:20;;;;;;;19.90;2.67;;;;;;;;;;5031143;28;20109;-41
2022/12/30 09:20:47;;;;;;;24.20;3.30;;;;;;;;;;5030272;28;20153;-40
2022/12/30 09:23:14;;;;;;;39.08;4.30;;;;;;;;;;5030978;28;20435;-43
2022/12/30 09:25:41;;;;;;;44.08;5.43;;;;;;;;;;5031204;28;20029;-40
2022/12/30 09:28:09;;;;;;;35.17;4.00;;;;;;;;;;5031237;28;20438;-43
2022/12/30 09:30:36;;;;;;;33.97;4.90;;;;;;;;;;5030507;28;20472;-43
2022/12/30 09:33:03;;;;;;;45.08;4.57;;;;;;;;;;5033007;28;20111;-43
2022/12/30 09:35:30;;;;;;;56.17;6.63;;;;;;;;;;5034571;28;20057;-43
2022/12/30 09:37:57;;;;;;;40.75;4.88;;;;;;;;;;5034617;28;20427;-43
2022/12/30 09:40:31;;;;;;;29.55;3.85;;;;;;;;;;5033664;28;20044;-41
2022/12/30 09:43:17;;;;;;;29.20;3.30;;;;;;;;;;5033921;28;20113;-43
2022/12/30 09:46:01;;;;;;;34.50;3.15;;;;;;;;;;5016783;28;20376;-41
2022/12/30 09:48:30;;;;;;;25.95;3.20;;;;;;;;;;5034179;28;20037;-40
2022/12/30 09:51:01;;;;;;;29.30;3.40;;;;;;;;;;5033293;28;20117;-41
2022/12/30 09:53:37;;;;;;;27.83;3.03;;;;;;;;;;5034131;28;20025;-40
2022/12/30 09:56:09;;;;;;;36.80;3.97;;;;;;;;;;5026413;28;20439;-40
2022/12/30 09:58:36;;;;;;;18.60;3.13;;;;;;;;;;5034464;28;20403;-41
2022/12/30 10:01:32;;;;;;;28.80;3.47;;;;;;;;;;5032992;28;20037;-43
2022/12/30 10:04:00;;;;;;;21.55;2.88;;;;;;;;;;5006197;28;20121;-41
2022/12/30 10:06:27;;;;;;;23.10;2.30;;;;;;;;;;5027247;28;20559;-40
2022/12/30 10:09:07;;;;;;;15.73;2.45;;;;;;;;;;5027736;28;20030;-43
2022/12/30 10:11:49;;;;;;;23.58;3.17;;;;;;;;;;5032836;28;20029;-43
2022/12/30 10:14:34;;;;;;;31.95;2.72;;;;;;;;;;5031933;28;20033;-43
2022/12/30 10:17:05;;;;;;;26.30;3.25;;;;;;;;;;5034097;28;20480;-43
2022/12/30 10:19:55;;;;;;;54.47;5.10;;;;;;;;;;5033487;28;20037;-41
2022/12/30 10:22:28;;;;;;;39.42;3.95;;;;;;;;;;5024113;28;20044;-40
2022/12/30 10:25:33;;;;;;;38.47;3.08;;;;;;;;;;5033019;28;20037;-41
2022/12/30 10:28:01;;;;;;;23.45;2.75;;;;;;;;;;4972167;28;20053;-41
2022/12/30 10:30:34;;;;;;;23.38;2.42;;;;;;;;;;4971888;28;20114;-43
2022/12/30 10:33:04;;;;;;;35.67;3.38;;;;;;;;;;5001536;28;20045;-43
2022/12/30 10:35:31;;;;;;;43.33;4.40;;;;;;;;;;5033454;28;20021;-40
2022/12/30 10:38:11;;;;;;;32.05;3.60;;;;;;;;;;5033314;28;20021;-43
2022/12/30 10:40:56;;;;;;;30.50;3.40;;;;;;;;;;5033275;28;20153;-43
2022/12/30 10:43:41;;;;;;;17.63;2.70;;;;;;;;;;5032025;28;20721;-40
2022/12/30 10:46:23;;;;;;;21.23;2.90;;;;;;;;;;5033579;28;20067;-43
2022/12/30 10:48:56;;;;;;;23.23;2.78;;;;;;;;;;5030422;28;20476;-43
2022/12/30 10:51:25;;;;;;;19.25;3.13;;;;;;;;;;5033167;28;20040;-42
2022/12/30 10:53:52;;;;;;;25.38;2.63;;;;;;;;;;5032919;28;20029;-43
2022/12/30 10:56:22;;;;;;;21.73;2.42;;;;;;;;;;5032743;28;20033;-40
2022/12/30 10:58:49;;;;;;;17.75;2.92;;;;;;;;;;5033140;28;20586;-40
2022/12/30 11:01:21;;;;;;;47.05;3.95;;;;;;;;;;5032163;28;20502;-43
2022/12/30 11:03:52;;;;;;;23.85;2.22;;;;;;;;;;5032530;28;20488;-43
2022/12/30 11:06:25;;;;;;;18.17;2.40;;;;;;;;;;5032781;28;20043;-43
2022/12/30 11:08:53;;;;;;;27.27;2.45;;;;;;;;;;5030224;28;20025;-42
2022/12/30 11:14:42;;;;;;;24.98;2.95;;;;;;;;;;5024546;28;20065;-42
2022/12/30 11:17:09;;;;;;;24.65;2.90;;;;;;;;;;5015637;28;20041;-42
2022/12/30 11:19:36;;;;;;;20.58;2.45;;;;;;;;;;5032288;28;20029;-40
2022/12/30 11:22:03;;;;;;;21.02;2.75;;;;;;;;;;5031653;28;20033;-41
2022/12/30 11:24:30;;;;;;;27.38;2.90;;;;;;;;;;5032281;28;20083;-43
2022/12/30 11:26:57;;;;;;;20.63;2.30;;;;;;;;;;5032079;28;20068;-38
2022/12/30 11:29:26;;;;;;;22.67;2.65;;;;;;;;;;5026269;28;20079;-41
2022/12/30 11:31:54;;;;;;;17.63;2.53;;;;;;;;;;5023562;28;20029;-43
2022/12/30 11:34:30;;;;;;;17.92;2.10;;;;;;;;;;5030166;28;20439;-44
2022/12/30 11:36:57;;;;;;;19.20;2.63;;;;;;;;;;5019764;28;20544;-45
2022/12/30 11:39:25;;;;;;;16.48;2.45;;;;;;;;;;5031402;28;20056;-47
2022/12/30 11:41:59;;;;;;;24.25;2.60;;;;;;;;;;5030993;28;20053;-43
2022/12/30 11:44:28;;;;;;;27.58;2.72;;;;;;;;;;5028868;28;20061;-43
2022/12/30 11:46:56;;;;;;;20.33;2.40;;;;;;;;;;5031581;28;20484;-47
2022/12/30 11:49:26;;;;;;;25.58;2.90;;;;;;;;;;5027587;28;20040;-45
2022/12/30 11:51:54;;;;;;;24.13;3.35;;;;;;;;;;5031336;28;20083;-45
2022/12/30 11:54:28;;;;;;;20.00;2.50;;;;;;;;;;5028124;28;20516;-49
2022/12/30 11:56:58;;;;;;;24.02;2.92;;;;;;;;;;5017583;28;20393;-43
2022/12/30 11:59:26;;;;;;;30.08;3.60;;;;;;;;;;5019529;28;20030;-47
2022/12/30 12:01:56;;;;;;;34.33;3.70;;;;;;;;;;5020763;28;20131;-46
2022/12/30 12:04:37;;;;;;;27.20;3.55;;;;;;;;;;5018432;28;20033;-44
2022/12/30 12:07:05;;;;;;;23.80;3.72;;;;;;;;;;5011248;28;20065;-45
2022/12/30 12:09:40;;;;;;;139.00;7.75;;;;;;;;;;5031062;28;20045;-46
2022/12/30 12:12:11;;;;;;;53.80;4.35;;;;;;;;;;5030799;28;20049;-47
2022/12/30 12:14:52;;;;;;;26.58;3.28;;;;;;;;;;5011476;28;20642;-44
2022/12/30 12:17:37;;;;;;;21.20;2.55;;;;;;;;;;5031263;28;20392;-42
2022/12/30 12:20:10;;;;;;;22.23;2.67;;;;;;;;;;5031349;28;20037;-42
2022/12/30 12:22:47;;;;;;;29.05;2.85;;;;;;;;;;5030150;28;20028;-41
2022/12/30 12:25:33;;;;;;;20.75;3.10;;;;;;;;;;5030738;28;20033;-39
2022/12/30 12:28:01;;;;;;;19.05;2.65;;;;;;;;;;5014340;28;20079;-44
2022/12/30 12:30:36;;;;;;;25.92;3.30;;;;;;;;;;5008792;28;20037;-40
2022/12/30 12:33:15;;;;;;;53.60;6.75;;;;;;;;;;5008879;28;20034;-42
2022/12/30 12:36:05;;;;;;;58.10;6.00;;;;;;;;;;4998280;28;20030;-47
2022/12/30 12:38:47;;;;;;;32.97;4.47;;;;;;;;;;4998809;28;20045;-41
2022/12/30 12:41:14;;;;;;;;;;;;;;;;;;5011207;28;20054;-43
2022/12/30 12:44:04;;;;;;;18.25;2.15;;;;;;;;;;5009392;28;19917;-44
2022/12/30 12:46:37;;;;;;;14.50;2.10;;;;;;;;;;5010615;28;20045;-49
2022/12/30 12:49:22;;;;;;;20.52;2.25;;;;;;;;;;5007278;28;20052;-45
2022/12/30 12:52:11;;;;;;;21.73;2.42;;;;;;;;;;5011569;28;20032;-41
2022/12/30 12:54:41;;;;;;;13.05;1.75;;;;;;;;;;4999187;28;20048;-43
2022/12/30 12:57:27;;;;;;;11.88;1.90;;;;;;;;;;5009998;28;20034;-47
2022/12/30 12:59:54;;;;;;;19.23;2.08;;;;;;;;;;5010369;28;20041;-43
2022/12/30 13:02:39;;;;;;;21.13;2.60;;;;;;;;;;5010343;28;20034;-44
2022/12/30 13:05:22;;;;;;;20.35;3.40;;;;;;;;;;5010610;28;20474;-40
2022/12/30 13:07:52;;;;;;;25.02;3.42;;;;;;;;;;5010244;28;20083;-41
2022/12/30 13:10:45;;;;;;;23.15;2.70;;;;;;;;;;5000571;28;20503;-41
2022/12/30 13:13:15;;;;;;;19.73;3.05;;;;;;;;;;5019062;28;20087;-41
2022/12/30 13:15:44;;;;;;;28.65;4.18;;;;;;;;;;5009012;28;20124;-44
2022/12/30 13:18:18;;;;;;;19.77;2.33;;;;;;;;;;5012003;28;20046;-42
2022/12/30 13:20:53;;;;;;;25.90;2.33;;;;;;;;;;5012301;28;20041;-41
2022/12/30 13:23:21;;;;;;;27.88;3.08;;;;;;;;;;5012657;28;20044;-41
2022/12/30 13:25:51;;;;;;;23.08;3.30;;;;;;;;;;5027264;28;20040;-43
2022/12/30 13:28:28;;;;;;;29.45;2.13;;;;;;;;;;5032650;28;20104;-41
2022/12/30 13:31:16;;;;;;;27.38;2.88;;;;;;;;;;5031705;28;20037;-40
2022/12/30 13:33:48;;;;;;;26.38;2.72;;;;;;;;;;5008052;28;20061;-40
2022/12/30 13:36:22;;;;;;;25.02;2.90;;;;;;;;;;5016844;28;20025;-37
2022/12/30 13:38:57;;;;;;;45.15;3.30;;;;;;;;;;5020299;28;20026;-41
2022/12/30 13:41:35;;;;;;;30.00;2.40;;;;;;;;;;5032898;28;20075;-39
2022/12/30 13:44:03;;;;;;;32.15;3.00;;;;;;;;;;5024828;28;20025;-38
2022/12/30 13:46:32;;;;;;;19.05;1.88;;;;;;;;;;5021772;28;20026;-39
2022/12/30 13:49:17;;;;;;;35.22;2.95;;;;;;;;;;5017981;28;20029;-39
2022/12/30 13:51:53;;;;;;;17.98;1.88;;;;;;;;;;5016355;28;20105;-38
2022/12/30 13:54:20;;;;;;;38.70;3.95;;;;;;;;;;5029167;28;20108;-37
2022/12/30 13:56:51;;;;;;;30.08;3.30;;;;;;;;;;5028995;28;20084;-40
2022/12/30 13:59:30;;;;;;;26.52;3.40;;;;;;;;;;5029548;28;20029;-41
2022/12/30 14:02:15;;;;;;;25.20;3.10;;;;;;;;;;5029606;28;20029;-39
2022/12/30 14:04:45;;;;;;;32.38;3.40;;;;;;;;;;5031977;28;20380;-43
2022/12/30 14:07:30;;;;;;;34.47;3.70;;;;;;;;;;5033600;28;20407;-41
2022/12/30 14:10:23;;;;;;;24.48;3.65;;;;;;;;;;5025947;28;20040;-39
2022/12/30 14:13:08;;;;;;;23.48;3.22;;;;;;;;;;5015932;28;20049;-41
2022/12/30 14:15:35;;;;;;;20.95;2.60;;;;;;;;;;5030970;28;20365;-40
2022/12/30 14:18:09;;;;;;;22.38;3.17;;;;;;;;;;5033211;28;20113;-39
2022/12/30 14:20:37;;;;;;;23.08;3.08;;;;;;;;;;5030031;28;20025;-39
2022/12/30 14:23:05;;;;;;;20.88;3.13;;;;;;;;;;5032189;28;20506;-38
2022/12/30 14:25:34;;;;;;;22.95;3.10;;;;;;;;;;5033489;28;20032;-38
2022/12/30 14:28:13;;;;;;;21.90;2.90;;;;;;;;;;5033419;28;20024;-39
2022/12/30 14:30:43;;;;;;;17.65;2.55;;;;;;;;;;5029210;28;20128;-40
2022/12/30 14:33:28;;;;;;;19.45;3.17;;;;;;;;;;5031911;28;20030;-37
2022/12/30 14:36:03;;;;;;;24.17;2.92;;;;;;;;;;5014024;28;20030;-40
2022/12/30 14:38:40;;;;;;;17.15;2.40;;;;;;;;;;5010491;28;20029;-40
2022/12/30 14:41:09;;;;;;;17.70;2.28;;;;;;;;;;5033385;28;20071;-40
2022/12/30 14:43:52;;;;;;;14.32;2.60;;;;;;;;;;5033860;28;20036;-38
2022/12/30 14:46:40;;;;;;;27.50;3.05;;;;;;;;;;5033426;28;20068;-40
2022/12/30 14:49:25;;;;;;;21.48;2.80;;;;;;;;;;5024423;28;20769;-39
2022/12/30 14:51:55;;;;;;;15.88;2.33;;;;;;;;;;5011111;28;20030;-38
2022/12/30 14:54:27;;;;;;;17.73;3.10;;;;;;;;;;5020340;28;20057;-37
2022/12/30 14:57:02;;;;;;;18.17;2.33;;;;;;;;;;5029196;28;20487;-40
2022/12/30 14:59:30;;;;;;;22.42;2.83;;;;;;;;;;5030485;28;20025;-39
2022/12/30 15:02:23;;;;;;;12.63;2.08;;;;;;;;;;5026206;28;20495;-38
2022/12/30 15:04:52;;;;;;;18.65;2.70;;;;;;;;;;5027256;28;20037;-38
2022/12/30 15:07:24;;;;;;;15.13;2.33;;;;;;;;;;5032712;28;20105;-40
2022/12/30 15:09:52;;;;;;;13.75;2.35;;;;;;;;;;5030261;28;20113;-38
2022/12/30 15:12:21;;;;;;;14.73;2.53;;;;;;;;;;5032525;28;20029;-39
2022/12/30 15:14:49;;;;;;;21.25;2.22;;;;;;;;;;5032576;28;20057;-41
2022/12/30 15:17:19;;;;;;;22.92;2.80;;;;;;;;;;5032639;28;20021;-39
2022/12/30 15:19:46;;;;;;;17.70;2.50;;;;;;;;;;5032560;28;20032;-40
2022/12/30 15:22:14;;;;;;;15.82;2.72;;;;;;;;;;5020832;28;20108;-40
2022/12/30 15:24:42;;;;;;;14.32;2.85;;;;;;;;;;5032411;28;20062;-39
2022/12/30 15:27:28;;;;;;;19.67;3.20;;;;;;;;;;5032163;28;20430;-40
2022/12/30 15:29:57;;;;;;;15.63;2.58;;;;;;;;;;5007633;28;20631;-44
2022/12/30 15:32:23;;;;;;;20.35;2.75;;;;;;;;;;5010382;28;20029;-40
2022/12/30 15:34:51;;;;;;;19.67;2.78;;;;;;;;;;5013523;28;20033;-39
2022/12/30 15:37:22;;;;;;;17.40;2.80;;;;;;;;;;5009105;28;20057;-39
2022/12/30 15:39:52;;;;;;;20.50;3.00;;;;;;;;;;5028127;28;20060;-37
2022/12/30 15:42:23;;;;;;;13.85;2.75;;;;;;;;;;5032348;28;20055;-37
2022/12/30 15:44:51;;;;;;;26.25;3.30;;;;;;;;;;5032787;28;20100;-37
2022/12/30 15:47:26;;;;;;;15.85;2.97;;;;;;;;;;5032670;28;20044;-37